Time;durP1;ratioP1;P1;durP2;ratioP2;P2;SDS_P1;SDS_P2;PMS_P1;PMS_P2;Temp;Humidity;BMP_temperature;BMP_pressure;BME280_temperature;BME280_humidity;BME280_pressure;Samples;Min_cycle;Max_cycle;Signal;HPM_P1;HPM_P2
2021/01/04 00:02:04;;;;;;;56.72;30.77;;;0.50;99.90;;;;;;5073970;28;20037;-76
2021/01/04 00:05:14;;;;;;;56.70;31.67;;;0.50;99.90;;;;;;5073913;28;20040;-76
2021/01/04 00:08:05;;;;;;;57.65;30.90;;;0.50;99.90;;;;;;5030676;28;20489;-76
2021/01/04 00:10:55;;;;;;;57.38;28.80;;;0.50;99.90;;;;;;5073505;28;20036;-76
2021/01/04 00:13:37;;;;;;;59.05;32.65;;;0.50;99.90;;;;;;5073179;28;20027;-76
2021/01/04 00:16:29;;;;;;;60.63;31.58;;;0.50;99.90;;;;;;5072594;28;20032;-76
2021/01/04 00:19:29;;;;;;;63.20;32.38;;;0.50;99.90;;;;;;5073233;28;20025;-73
2021/01/04 00:21:58;;;;;;;;;;;0.50;99.90;;;;;;5068758;28;20041;-73
2021/01/04 00:24:33;;;;;;;66.35;33.40;;;0.50;99.90;;;;;;5073478;28;19926;-77
2021/01/04 00:27:18;;;;;;;61.75;33.10;;;0.60;99.90;;;;;;5072560;28;20032;-74
2021/01/04 00:29:44;;;;;;;72.28;33.85;;;0.60;99.90;;;;;;5073116;28;20485;-75
2021/01/04 00:32:22;;;;;;;70.72;34.67;;;0.50;99.90;;;;;;5072673;28;20029;-76
2021/01/04 00:34:52;;;;;;;67.40;34.92;;;0.60;99.90;;;;;;5073291;28;20075;-77
2021/01/04 00:37:39;;;;;;;67.53;35.28;;;0.50;99.90;;;;;;5072626;28;20035;-76
2021/01/04 00:40:19;;;;;;;71.22;33.83;;;0.60;99.90;;;;;;5072205;28;20078;-76
2021/01/04 00:42:49;;;;;;;63.55;34.67;;;0.50;99.90;;;;;;5075807;28;20034;-76
2021/01/04 00:45:26;;;;;;;62.95;34.38;;;0.60;99.90;;;;;;5072026;28;20025;-76
2021/01/04 00:48:01;;;;;;;62.30;34.22;;;0.60;99.90;;;;;;5073033;28;20051;-76
2021/01/04 00:51:00;;;;;;;62.30;32.92;;;0.60;99.90;;;;;;5072851;28;20031;-74
2021/01/04 00:53:32;;;;;;;63.97;33.33;;;0.50;99.90;;;;;;5072809;28;20033;-77
2021/01/04 00:56:35;;;;;;;63.28;33.78;;;0.50;99.90;;;;;;5072301;28;20025;-73
2021/01/04 00:59:38;;;;;;;64.97;34.80;;;0.60;99.90;;;;;;5071689;28;20139;-76
2021/01/04 01:02:12;;;;;;;61.53;32.20;;;0.50;99.90;;;;;;5072966;28;20033;-75
2021/01/04 01:04:48;;;;;;;63.95;35.63;;;0.50;99.90;;;;;;5072910;28;20488;-77
2021/01/04 01:07:24;;;;;;;63.30;34.58;;;0.50;99.90;;;;;;5079318;28;20377;-74
2021/01/04 01:09:53;;;;;;;62.10;34.20;;;0.50;99.90;;;;;;5092755;28;20514;-76
2021/01/04 01:12:19;;;;;;;64.13;34.35;;;0.60;99.90;;;;;;5091698;28;20085;-75
2021/01/04 01:14:50;;;;;;;61.25;33.72;;;0.50;99.90;;;;;;5092196;28;20024;-76
2021/01/04 01:17:18;;;;;;;69.75;36.33;;;0.50;99.90;;;;;;5091813;28;20712;-77
2021/01/04 01:19:57;;;;;;;62.13;33.38;;;0.50;99.90;;;;;;5074387;28;20032;-77
2021/01/04 01:22:30;;;;;;;59.45;32.33;;;0.50;99.90;;;;;;5092028;28;20035;-77
2021/01/04 01:25:00;;;;;;;62.20;33.40;;;0.50;99.90;;;;;;5092044;28;20542;-72
2021/01/04 01:27:45;;;;;;;;;;;0.50;99.90;;;;;;5093060;28;20039;-77
2021/01/04 01:30:42;;;;;;;64.63;32.83;;;0.50;99.90;;;;;;5091392;28;19965;-77
2021/01/04 01:33:37;;;;;;;66.38;33.90;;;0.50;99.90;;;;;;5090764;28;20033;-77
2021/01/04 01:36:14;;;;;;;66.53;34.20;;;0.40;99.90;;;;;;5091629;28;20109;-73
2021/01/04 01:39:33;;;;;;;64.97;32.60;;;0.40;99.90;;;;;;5092489;28;20415;-77
2021/01/04 01:42:32;;;;;;;68.05;34.10;;;0.50;99.90;;;;;;4973666;28;20387;-72
2021/01/04 01:45:16;;;;;;;66.28;33.47;;;0.40;99.90;;;;;;4990246;28;20034;-73
2021/01/04 01:47:57;;;;;;;68.28;35.30;;;0.40;99.90;;;;;;4990294;28;20121;-76
2021/01/04 01:50:44;;;;;;;70.90;36.17;;;0.40;99.90;;;;;;4989741;28;20033;-77
2021/01/04 01:53:28;;;;;;;69.20;34.72;;;0.40;99.90;;;;;;4989498;28;20048;-76
2021/01/04 01:56:15;;;;;;;63.92;33.35;;;0.40;99.90;;;;;;4990255;28;20522;-76
2021/01/04 01:59:07;;;;;;;67.43;34.90;;;0.40;99.90;;;;;;4989897;28;20077;-76
2021/01/04 02:01:53;;;;;;;68.88;35.28;;;0.40;99.90;;;;;;4990714;28;20129;-71
2021/01/04 02:04:46;;;;;;;62.70;30.73;;;0.50;99.90;;;;;;4989918;28;20162;-77
2021/01/04 02:07:34;;;;;;;64.03;32.72;;;0.40;99.90;;;;;;4982390;28;20045;-76
2021/01/04 02:10:08;;;;;;;62.03;35.15;;;0.40;99.90;;;;;;4953971;28;20038;-73
2021/01/04 02:13:30;;;;;;;64.03;33.33;;;0.40;99.90;;;;;;5023274;28;20036;-76
2021/01/04 02:16:01;;;;;;;64.03;32.80;;;0.40;99.90;;;;;;5009725;28;20037;-77
2021/01/04 02:18:51;;;;;;;67.47;34.30;;;0.40;99.90;;;;;;5009475;28;20084;-76
2021/01/04 02:21:36;;;;;;;63.38;33.20;;;0.40;99.90;;;;;;5057681;28;20036;-76
2021/01/04 02:24:06;;;;;;;59.50;31.73;;;0.40;99.90;;;;;;5071152;28;20029;-73
2021/01/04 02:26:33;;;;;;;60.75;32.65;;;0.40;99.90;;;;;;5071627;28;20048;-76
2021/01/04 02:29:02;;;;;;;65.32;33.58;;;0.40;99.90;;;;;;5071115;28;20029;-72
2021/01/04 02:31:29;;;;;;;67.57;33.22;;;0.30;99.90;;;;;;5071427;28;20021;-76
2021/01/04 02:33:55;;;;;;;63.05;34.17;;;0.30;99.90;;;;;;5071196;28;20462;-77
2021/01/04 02:36:24;;;;;;;66.03;34.03;;;0.30;99.90;;;;;;5070644;28;20136;-77
2021/01/04 02:39:05;;;;;;;62.78;32.25;;;0.30;99.90;;;;;;5071116;28;20067;-74
2021/01/04 02:41:52;;;;;;;66.00;34.20;;;0.30;99.90;;;;;;5071515;28;20483;-77
2021/01/04 02:44:19;;;;;;;65.85;32.85;;;0.30;99.90;;;;;;5053348;28;20221;-76
2021/01/04 02:47:06;;;;;;;66.00;33.42;;;0.30;99.90;;;;;;5075394;28;20428;-76
2021/01/04 02:49:53;;;;;;;63.83;32.80;;;0.30;99.90;;;;;;5074984;28;20025;-76
2021/01/04 02:53:04;;;;;;;65.22;33.13;;;0.30;99.90;;;;;;5074252;28;20486;-77
2021/01/04 02:55:53;;;;;;;61.45;32.70;;;0.30;99.90;;;;;;5013273;28;20064;-77
2021/01/04 02:58:34;;;;;;;66.15;32.70;;;0.30;99.90;;;;;;5012186;28;20113;-76
2021/01/04 03:01:14;;;;;;;63.33;32.88;;;0.30;99.90;;;;;;4992942;28;20058;-72
2021/01/04 03:03:41;;;;;;;60.38;31.95;;;0.30;99.90;;;;;;4993269;28;20631;-76
2021/01/04 03:06:11;;;;;;;61.17;33.08;;;0.30;99.90;;;;;;4976075;28;20026;-75
2021/01/04 03:08:37;;;;;;;63.65;32.60;;;0.30;99.90;;;;;;4993418;28;20030;-76
2021/01/04 03:11:11;;;;;;;59.13;33.05;;;0.30;99.90;;;;;;4992488;28;20042;-72
2021/01/04 03:13:54;;;;;;;60.50;31.33;;;0.30;99.90;;;;;;4993235;28;20129;-75
2021/01/04 03:16:37;;;;;;;58.53;31.27;;;0.30;99.90;;;;;;4992863;28;20117;-76
2021/01/04 03:19:11;;;;;;;59.17;31.90;;;0.30;99.90;;;;;;4992587;28;20044;-72
2021/01/04 03:21:39;;;;;;;63.38;32.55;;;0.20;99.90;;;;;;4992891;28;20040;-75
2021/01/04 03:24:10;;;;;;;61.15;32.00;;;0.20;99.90;;;;;;4992158;28;20045;-75
2021/01/04 03:26:45;;;;;;;65.72;33.75;;;0.20;99.90;;;;;;5032472;28;20072;-76
2021/01/04 03:29:10;;;;;;;60.50;31.65;;;0.20;99.90;;;;;;5053794;28;20138;-73
2021/01/04 03:31:36;;;;;;;60.92;32.13;;;0.20;99.90;;;;;;5054087;28;20103;-71
2021/01/04 03:34:02;;;;;;;59.85;31.85;;;0.20;99.90;;;;;;5053753;28;20474;-72
2021/01/04 03:36:28;;;;;;;54.30;29.85;;;0.20;99.90;;;;;;5053586;28;20021;-75
2021/01/04 03:38:53;;;;;;;63.15;32.10;;;0.20;99.90;;;;;;5054311;28;20083;-75
2021/01/04 03:41:19;;;;;;;60.33;32.70;;;0.20;99.90;;;;;;5053335;28;20108;-75
2021/01/04 03:43:45;;;;;;;61.85;32.15;;;0.20;99.90;;;;;;5036335;28;20029;-75
2021/01/04 03:46:11;;;;;;;63.42;33.50;;;0.20;99.90;;;;;;5053409;28;20386;-73
2021/01/04 03:48:37;;;;;;;63.05;31.88;;;0.30;99.90;;;;;;5053948;28;20071;-75
2021/01/04 03:51:03;;;;;;;63.60;34.28;;;0.30;99.90;;;;;;5053934;28;20493;-72
2021/01/04 03:53:29;;;;;;;66.63;33.50;;;0.20;99.90;;;;;;5054024;28;20117;-76
2021/01/04 03:55:55;;;;;;;62.65;32.47;;;0.20;99.90;;;;;;5052481;28;20100;-76
2021/01/04 03:58:21;;;;;;;64.90;33.85;;;0.30;99.90;;;;;;5052762;28;20033;-75
2021/01/04 04:00:47;;;;;;;60.05;33.60;;;0.30;99.90;;;;;;5073493;28;20032;-76
2021/01/04 04:03:12;;;;;;;62.00;33.42;;;0.30;99.90;;;;;;5072945;28;20071;-75
2021/01/04 04:05:38;;;;;;;63.67;33.92;;;0.30;99.90;;;;;;5073347;28;20051;-73
2021/01/04 04:08:05;;;;;;;59.28;33.10;;;0.30;99.90;;;;;;5087278;28;20067;-71
2021/01/04 04:10:30;;;;;;;63.38;32.55;;;0.30;99.90;;;;;;5087908;28;20028;-75
2021/01/04 04:12:57;;;;;;;62.97;33.40;;;0.30;99.90;;;;;;5083242;28;20758;-75
2021/01/04 04:15:23;;;;;;;65.82;33.65;;;0.30;99.90;;;;;;5080317;28;20035;-76
2021/01/04 04:17:49;;;;;;;58.13;33.20;;;0.30;99.90;;;;;;5082793;28;20031;-75
2021/01/04 04:20:22;;;;;;;65.90;33.80;;;0.30;99.90;;;;;;5081966;28;20028;-76
2021/01/04 04:22:50;;;;;;;63.22;33.78;;;0.30;99.90;;;;;;5081895;28;20021;-75
2021/01/04 04:25:17;;;;;;;60.13;33.17;;;0.30;99.90;;;;;;5062835;28;20320;-74
2021/01/04 04:27:43;;;;;;;60.13;32.20;;;0.30;99.90;;;;;;5083055;28;20028;-73
2021/01/04 04:30:12;;;;;;;58.25;32.13;;;0.30;99.90;;;;;;5081037;28;20124;-75
2021/01/04 04:32:37;;;;;;;67.65;34.45;;;0.30;99.90;;;;;;5080815;28;20107;-76
2021/01/04 04:35:05;;;;;;;59.60;32.83;;;0.30;99.90;;;;;;5082407;28;20116;-73
2021/01/04 04:37:31;;;;;;;59.67;32.58;;;0.30;99.90;;;;;;5081816;28;20020;-72
2021/01/04 04:39:57;;;;;;;62.95;33.22;;;0.30;99.90;;;;;;5080621;28;20056;-75
2021/01/04 04:42:23;;;;;;;62.63;33.28;;;0.30;99.90;;;;;;5082100;28;20692;-77
2021/01/04 04:45:03;;;;;;;61.83;32.78;;;0.30;99.90;;;;;;5081313;28;20416;-73
2021/01/04 04:47:56;;;;;;;64.68;34.15;;;0.30;99.90;;;;;;5080846;28;20063;-74
2021/01/04 04:50:40;;;;;;;63.70;33.05;;;0.30;99.90;;;;;;5081752;28;20032;-75
2021/01/04 04:53:27;;;;;;;64.80;32.80;;;0.30;99.90;;;;;;5080044;28;20074;-72
2021/01/04 04:56:14;;;;;;;60.28;32.25;;;0.30;99.90;;;;;;5066720;28;20091;-73
2021/01/04 04:59:01;;;;;;;54.88;30.58;;;0.30;99.90;;;;;;5093032;28;20093;-75
2021/01/04 05:01:50;;;;;;;57.63;31.85;;;0.30;99.90;;;;;;5092072;28;20036;-74
2021/01/04 05:04:23;;;;;;;58.17;31.70;;;0.20;99.90;;;;;;5074079;28;20062;-75
2021/01/04 05:06:59;;;;;;;58.88;32.13;;;0.20;99.90;;;;;;5088791;28;20112;-74
2021/01/04 05:09:45;;;;;;;64.30;33.70;;;0.20;99.90;;;;;;5071511;28;20473;-74
2021/01/04 05:12:32;;;;;;;60.30;31.45;;;0.20;99.90;;;;;;5071732;28;20028;-74
2021/01/04 05:15:13;;;;;;;60.90;31.30;;;0.20;99.90;;;;;;5072449;28;20031;-77
2021/01/04 05:17:51;;;;;;;56.60;31.08;;;0.20;99.90;;;;;;5072109;28;20032;-76
2021/01/04 05:20:55;;;;;;;56.90;30.70;;;0.20;99.90;;;;;;5071653;28;20029;-77
2021/01/04 05:23:39;;;;;;;60.00;31.73;;;0.20;99.90;;;;;;5071443;28;20028;-76
2021/01/04 05:26:27;;;;;;;68.03;34.72;;;0.20;99.90;;;;;;5072385;28;20028;-74
2021/01/04 05:29:15;;;;;;;64.82;32.75;;;0.20;99.90;;;;;;5072349;28;20474;-75
2021/01/04 05:32:10;;;;;;;70.05;32.95;;;0.20;99.90;;;;;;5072136;28;20032;-73
2021/01/04 05:34:39;;;;;;;61.08;32.80;;;0.30;99.90;;;;;;5072679;28;20052;-77
2021/01/04 05:37:13;;;;;;;62.20;33.88;;;0.20;99.90;;;;;;5071614;28;20489;-72
2021/01/04 05:39:58;;;;;;;63.53;32.05;;;0.20;99.90;;;;;;5072116;28;20361;-76
2021/01/04 05:42:44;;;;;;;59.55;31.08;;;0.20;99.90;;;;;;5071301;28;20028;-78
2021/01/04 05:45:48;;;;;;;61.78;33.13;;;0.20;99.90;;;;;;5071691;28;20020;-76
2021/01/04 05:48:29;;;;;;;62.58;31.17;;;0.20;99.90;;;;;;5070829;28;20028;-75
2021/01/04 05:51:16;;;;;;;66.85;33.80;;;0.20;99.90;;;;;;5071808;28;20028;-71
2021/01/04 05:53:44;;;;;;;61.88;32.90;;;0.20;99.90;;;;;;5071700;28;20052;-74
2021/01/04 05:56:17;;;;;;;63.33;32.72;;;0.20;99.90;;;;;;5070815;28;20025;-75
2021/01/04 05:58:43;;;;;;;58.72;30.80;;;0.20;99.90;;;;;;5071375;28;20052;-76
2021/01/04 06:01:08;;;;;;;60.60;31.58;;;0.20;99.90;;;;;;5070891;28;20105;-72
2021/01/04 06:03:34;;;;;;;64.25;34.15;;;0.30;99.90;;;;;;5071823;28;20513;-76
2021/01/04 06:06:09;;;;;;;62.83;32.97;;;0.30;99.90;;;;;;5053603;28;20506;-75
2021/01/04 06:08:35;;;;;;;63.90;33.42;;;0.30;99.90;;;;;;5072338;28;20031;-75
2021/01/04 06:11:19;;;;;;;65.63;32.90;;;0.40;99.90;;;;;;5091885;28;20326;-75
2021/01/04 06:13:46;;;;;;;65.65;33.42;;;0.30;99.90;;;;;;5092697;28;20035;-76
2021/01/04 06:16:17;;;;;;;58.78;32.35;;;0.40;99.90;;;;;;5091284;28;20107;-75
2021/01/04 06:18:50;;;;;;;67.78;35.20;;;0.40;99.90;;;;;;5091665;28;20032;-79
2021/01/04 06:21:23;;;;;;;65.93;33.72;;;0.40;99.90;;;;;;5094977;28;20466;-77
2021/01/04 06:23:52;;;;;;;63.65;32.25;;;0.30;99.90;;;;;;5095903;28;20373;-76
2021/01/04 06:26:22;;;;;;;64.35;34.22;;;0.30;99.90;;;;;;5094871;28;20107;-77
2021/01/04 06:28:54;;;;;;;62.95;32.28;;;0.30;99.90;;;;;;5095702;28;20148;-75
2021/01/04 06:31:29;;;;;;;59.00;32.55;;;0.30;99.90;;;;;;5094759;28;20075;-76
2021/01/04 06:33:58;;;;;;;61.85;33.13;;;0.40;99.90;;;;;;5095537;28;20176;-75
2021/01/04 06:36:24;;;;;;;64.95;35.15;;;0.30;99.90;;;;;;5094839;28;20024;-75
2021/01/04 06:38:51;;;;;;;62.15;32.72;;;0.30;99.90;;;;;;5095160;28;20032;-75
2021/01/04 06:41:30;;;;;;;66.47;32.97;;;0.30;99.90;;;;;;5094529;28;20031;-76
2021/01/04 06:44:07;;;;;;;64.07;34.15;;;0.30;99.90;;;;;;5077513;28;20422;-75
2021/01/04 06:46:59;;;;;;;64.35;33.40;;;0.30;99.90;;;;;;5094725;28;20077;-75
2021/01/04 06:49:31;;;;;;;65.68;33.40;;;0.30;99.90;;;;;;5094409;28;20035;-75
2021/01/04 06:52:26;;;;;;;65.88;34.83;;;0.30;99.90;;;;;;5095500;28;20046;-75
2021/01/04 06:55:05;;;;;;;59.13;31.38;;;0.30;99.90;;;;;;5095480;28;20052;-75
2021/01/04 06:57:52;;;;;;;67.47;33.70;;;0.30;99.90;;;;;;5094267;28;20028;-73
2021/01/04 07:00:51;;;;;;;65.55;36.35;;;0.30;99.90;;;;;;5094280;28;20055;-76
2021/01/04 07:03:29;;;;;;;63.60;33.35;;;0.30;99.90;;;;;;5094499;28;20060;-75
2021/01/04 07:06:31;;;;;;;62.08;31.65;;;0.40;99.90;;;;;;5095082;28;20472;-77
2021/01/04 07:09:32;;;;;;;64.43;32.90;;;0.30;99.90;;;;;;5074457;28;20381;-75
2021/01/04 07:12:05;;;;;;;58.90;32.30;;;0.40;99.90;;;;;;5043384;28;20040;-73
2021/01/04 07:15:04;;;;;;;67.63;35.28;;;0.40;99.90;;;;;;5073784;28;20508;-75
2021/01/04 07:17:39;;;;;;;62.10;33.05;;;0.40;99.90;;;;;;5073810;28;20107;-76
2021/01/04 07:20:13;;;;;;;61.28;32.75;;;0.40;99.90;;;;;;5074112;28;20024;-77
2021/01/04 07:23:01;;;;;;;61.63;32.22;;;0.40;99.90;;;;;;5073999;28;20434;-72
2021/01/04 07:25:57;;;;;;;65.45;32.47;;;0.40;99.90;;;;;;5073308;28;20074;-72
2021/01/04 07:28:55;;;;;;;62.45;33.55;;;0.40;99.90;;;;;;5072749;28;20032;-73
2021/01/04 07:31:39;;;;;;;65.85;32.60;;;0.40;99.90;;;;;;5071920;28;20040;-76
2021/01/04 07:34:20;;;;;;;64.70;33.53;;;0.40;99.90;;;;;;5074206;28;20075;-74
2021/01/04 07:36:54;;;;;;;59.42;32.40;;;0.40;99.90;;;;;;5074868;28;20044;-76
2021/01/04 07:39:48;;;;;;;64.60;32.42;;;0.40;99.90;;;;;;5055660;28;20032;-75
2021/01/04 07:42:50;;;;;;;59.05;30.73;;;0.40;99.90;;;;;;5074107;28;20086;-76
2021/01/04 07:45:43;;;;;;;64.45;33.50;;;0.50;99.90;;;;;;5073614;28;20223;-74
2021/01/04 07:48:53;;;;;;;64.00;32.97;;;0.50;99.90;;;;;;5073691;28;20025;-73
2021/01/04 07:51:56;;;;;;;60.35;32.08;;;0.40;99.90;;;;;;5073363;28;20082;-76
2021/01/04 07:54:59;;;;;;;64.75;33.35;;;0.40;99.90;;;;;;5072763;28;20035;-75
2021/01/04 07:57:36;;;;;;;66.72;32.95;;;0.40;99.90;;;;;;5055280;28;20036;-75
2021/01/04 08:00:23;;;;;;;63.25;32.33;;;0.40;99.90;;;;;;5073609;28;20102;-74
2021/01/04 08:03:06;;;;;;;61.97;31.17;;;0.50;99.90;;;;;;5073934;28;20086;-75
2021/01/04 08:05:39;;;;;;;65.20;34.00;;;0.50;99.90;;;;;;5073292;28;20584;-74
2021/01/04 08:08:13;;;;;;;61.22;32.30;;;0.50;99.90;;;;;;5075682;28;20025;-76
2021/01/04 08:10:49;;;;;;;62.35;31.42;;;0.50;99.90;;;;;;5073493;28;20035;-76
2021/01/04 08:13:37;;;;;;;64.15;32.78;;;0.60;99.90;;;;;;5073085;28;20033;-74
2021/01/04 08:16:11;;;;;;;59.28;31.02;;;0.50;99.90;;;;;;5078963;28;20021;-75
2021/01/04 08:18:38;;;;;;;57.53;30.35;;;0.50;99.90;;;;;;5082749;28;20028;-77
2021/01/04 08:21:56;;;;;;;59.65;30.75;;;0.50;99.90;;;;;;5079877;28;20020;-75
2021/01/04 08:24:30;;;;;;;57.08;27.88;;;0.50;99.90;;;;;;5025416;28;20057;-74
2021/01/04 08:27:11;;;;;;;58.50;30.98;;;0.60;99.90;;;;;;5053840;28;20036;-75
2021/01/04 08:29:45;;;;;;;;;;;0.60;99.90;;;;;;5053569;28;20033;-76
2021/01/04 08:32:33;;;;;;;57.65;30.33;;;0.60;99.90;;;;;;5053239;28;19916;-72
2021/01/04 08:35:28;;;;;;;60.15;31.02;;;0.60;99.90;;;;;;5053026;28;20032;-70
2021/01/04 08:37:56;;;;;;;56.05;29.85;;;0.70;99.90;;;;;;5053073;28;20040;-75
2021/01/04 08:40:27;;;;;;;60.20;31.83;;;0.70;99.90;;;;;;5051719;28;20025;-72
2021/01/04 08:43:05;;;;;;;55.65;29.58;;;0.70;99.90;;;;;;5052770;28;20057;-76
2021/01/04 08:45:36;;;;;;;58.53;30.42;;;0.70;99.90;;;;;;5051826;28;20021;-77
2021/01/04 08:48:35;;;;;;;56.85;30.55;;;0.80;99.90;;;;;;5052714;28;20029;-77
2021/01/04 08:51:24;;;;;;;50.75;29.17;;;0.80;99.90;;;;;;5035078;28;20490;-80
2021/01/04 08:53:55;;;;;;;58.40;29.70;;;0.90;99.90;;;;;;5068127;28;20024;-73
2021/01/04 08:56:42;;;;;;;58.97;32.17;;;0.90;99.90;;;;;;5054057;28;20044;-73
2021/01/04 08:59:15;;;;;;;61.58;31.38;;;0.90;99.90;;;;;;5055658;28;20052;-73
2021/01/04 09:01:46;;;;;;;60.22;31.17;;;0.80;99.90;;;;;;5075078;28;20081;-74
2021/01/04 09:04:41;;;;;;;53.25;30.38;;;0.90;99.90;;;;;;5054569;28;20024;-71
2021/01/04 09:07:21;;;;;;;58.28;30.08;;;0.90;99.90;;;;;;5072862;28;20059;-73
2021/01/04 09:09:53;;;;;;;57.70;29.77;;;0.90;99.90;;;;;;5072211;28;20516;-73
2021/01/04 09:12:45;;;;;;;54.85;29.00;;;0.90;99.90;;;;;;5069830;28;20036;-72
2021/01/04 09:15:30;;;;;;;53.38;28.85;;;0.90;99.90;;;;;;5053814;28;20028;-74
2021/01/04 09:17:59;;;;;;;50.25;27.55;;;0.90;99.90;;;;;;5072298;28;20071;-73
2021/01/04 09:20:43;;;;;;;50.70;27.20;;;1.00;99.90;;;;;;5071460;28;20135;-71
2021/01/04 09:23:13;;;;;;;51.40;28.13;;;1.00;99.90;;;;;;5072178;28;20047;-75
2021/01/04 09:26:00;;;;;;;51.25;28.23;;;1.00;99.90;;;;;;5071703;28;20031;-72
2021/01/04 09:28:34;;;;;;;53.97;28.98;;;1.00;99.90;;;;;;5071747;28;20408;-74
2021/01/04 09:31:01;;;;;;;56.83;29.58;;;1.00;99.90;;;;;;5072188;28;20485;-72
2021/01/04 09:33:26;;;;;;;58.00;30.77;;;1.00;99.90;;;;;;5071492;28;20028;-75
2021/01/04 09:36:02;;;;;;;59.55;32.55;;;1.10;99.90;;;;;;5072229;28;20029;-76
2021/01/04 09:38:29;;;;;;;58.33;30.75;;;1.10;99.90;;;;;;5071154;28;20103;-71
2021/01/04 09:41:03;;;;;;;56.67;30.05;;;1.10;99.90;;;;;;5070547;28;20029;-71
2021/01/04 09:43:32;;;;;;;54.53;28.60;;;1.10;99.90;;;;;;5072012;28;20070;-72
2021/01/04 09:46:27;;;;;;;53.08;29.05;;;1.10;99.90;;;;;;5071661;28;20058;-69
2021/01/04 09:49:02;;;;;;;50.83;28.08;;;1.10;99.90;;;;;;5054187;28;20017;-73
2021/01/04 09:51:57;;;;;;;47.67;26.80;;;1.20;99.90;;;;;;5071314;28;20032;-70
2021/01/04 09:54:29;;;;;;;55.13;29.20;;;1.20;99.90;;;;;;5057006;28;20477;-75
2021/01/04 09:57:07;;;;;;;52.67;29.42;;;1.30;99.90;;;;;;5071476;28;20064;-73
2021/01/04 09:59:40;;;;;;;52.47;28.17;;;1.30;99.90;;;;;;5069858;28;20052;-70
2021/01/04 10:02:13;;;;;;;51.78;28.17;;;1.30;99.90;;;;;;5071912;28;20032;-68
2021/01/04 10:04:43;;;;;;;53.35;29.70;;;1.30;99.90;;;;;;5071989;28;20086;-72
2021/01/04 10:07:12;;;;;;;;;;;1.30;99.90;;;;;;5077782;28;20024;-67
2021/01/04 10:09:42;;;;;;;51.38;27.25;;;1.40;99.90;;;;;;5068243;28;19915;-68
2021/01/04 10:12:09;;;;;;;;;;;1.40;99.90;;;;;;5071289;28;20032;-68
2021/01/04 10:14:36;;;;;;;58.30;28.48;;;1.50;99.90;;;;;;5070466;28;20352;-65
2021/01/04 10:17:03;;;;;;;53.28;30.27;;;1.50;99.90;;;;;;5058413;28;20021;-67
2021/01/04 10:19:53;;;;;;;57.13;30.55;;;1.50;99.90;;;;;;5051437;28;20083;-67
2021/01/04 10:22:35;;;;;;;48.90;26.45;;;1.50;99.90;;;;;;5053948;28;20416;-67
2021/01/04 10:25:14;;;;;;;45.80;25.10;;;1.60;99.90;;;;;;5064995;28;20064;-68
2021/01/04 10:27:41;;;;;;;42.28;25.73;;;1.60;99.90;;;;;;5070518;28;20025;-69
2021/01/04 10:30:09;;;;;;;46.42;25.10;;;1.60;99.90;;;;;;5070854;28;20025;-68
2021/01/04 10:32:40;;;;;;;50.10;29.38;;;1.70;99.90;;;;;;5069987;28;20032;-68
2021/01/04 10:35:19;;;;;;;52.75;30.05;;;1.70;99.90;;;;;;5073298;28;20034;-69
2021/01/04 10:37:45;;;;;;;46.50;26.42;;;1.70;99.90;;;;;;5090975;28;20046;-68
2021/01/04 10:40:15;;;;;;;43.08;24.95;;;1.80;99.90;;;;;;5091592;28;20338;-69
2021/01/04 10:42:43;;;;;;;43.45;24.20;;;1.80;99.90;;;;;;5090629;28;20040;-69
2021/01/04 10:45:10;;;;;;;43.60;23.48;;;1.80;99.90;;;;;;5091568;28;20062;-67
2021/01/04 10:47:55;;;;;;;46.10;25.52;;;1.80;99.90;;;;;;5090769;28;20787;-68
2021/01/04 10:50:31;;;;;;;50.88;25.10;;;1.80;99.90;;;;;;5081490;28;20034;-68
2021/01/04 10:53:06;;;;;;;44.85;25.02;;;1.80;99.90;;;;;;5078413;28;20462;-70
2021/01/04 10:55:34;;;;;;;47.15;25.10;;;1.90;99.90;;;;;;5069850;28;20492;-67
2021/01/04 10:58:28;;;;;;;41.47;23.83;;;1.90;99.90;;;;;;5070646;28;20052;-67
2021/01/04 11:01:10;;;;;;;44.47;25.17;;;1.90;99.90;;;;;;5051505;28;20052;-67
2021/01/04 11:03:39;;;;;;;40.47;23.27;;;1.90;99.90;;;;;;5050129;28;20895;-66
2021/01/04 11:06:21;;;;;;;45.30;25.38;;;1.80;99.90;;;;;;5062009;28;20029;-67
2021/01/04 11:08:46;;;;;;;41.58;24.30;;;1.80;99.90;;;;;;5054715;28;20041;-67
2021/01/04 11:11:35;;;;;;;41.55;24.70;;;1.80;99.90;;;;;;5054795;28;20061;-66
2021/01/04 11:14:20;;;;;;;40.38;23.38;;;1.90;99.90;;;;;;5054551;28;20058;-65
2021/01/04 11:16:46;;;;;;;43.00;24.25;;;1.90;99.90;;;;;;5054289;28;20052;-68
2021/01/04 11:19:13;;;;;;;41.25;24.55;;;1.80;99.90;;;;;;5054534;28;20057;-67
2021/01/04 11:21:46;;;;;;;45.25;25.55;;;1.90;99.90;;;;;;5053346;28;20025;-67
2021/01/04 11:24:12;;;;;;;41.53;23.55;;;1.90;99.90;;;;;;5085843;28;20104;-64
2021/01/04 11:26:46;;;;;;;39.97;23.55;;;1.90;99.90;;;;;;5075909;28;20552;-72
2021/01/04 11:29:12;;;;;;;40.70;23.58;;;2.00;99.90;;;;;;5093968;28;20107;-71
2021/01/04 11:31:38;;;;;;;41.67;23.80;;;1.90;99.90;;;;;;5093948;28;20021;-72
2021/01/04 11:34:05;;;;;;;40.38;23.15;;;2.00;99.90;;;;;;5094371;28;20027;-67
2021/01/04 11:36:31;;;;;;;40.20;22.08;;;1.90;99.90;;;;;;5074941;28;20115;-71
2021/01/04 11:38:58;;;;;;;40.60;24.92;;;2.00;99.90;;;;;;5079131;28;20119;-72
2021/01/04 11:41:24;;;;;;;36.45;21.27;;;2.00;99.90;;;;;;5072878;28;20052;-72
2021/01/04 11:43:50;;;;;;;30.30;18.80;;;2.10;99.90;;;;;;5073813;28;20473;-72
2021/01/04 11:46:17;;;;;;;26.95;16.85;;;2.10;99.90;;;;;;5074163;28;20058;-72
2021/01/04 11:48:44;;;;;;;27.50;15.38;;;2.10;99.30;;;;;;5073293;28;20028;-71
2021/01/04 11:51:14;;;;;;;19.02;12.63;;;2.20;96.60;;;;;;5074040;28;20135;-71
2021/01/04 11:53:39;;;;;;;19.83;12.68;;;2.20;92.20;;;;;;5068736;28;20066;-72
2021/01/04 11:56:05;;;;;;;18.88;11.98;;;2.20;93.40;;;;;;5073610;28;20028;-71
2021/01/04 11:58:31;;;;;;;18.85;11.90;;;2.20;91.90;;;;;;5072267;28;20043;-72
2021/01/04 12:00:56;;;;;;;19.10;12.40;;;2.20;90.00;;;;;;5055519;28;20036;-72
2021/01/04 12:03:22;;;;;;;18.42;11.50;;;2.20;90.90;;;;;;5072954;28;20097;-72
2021/01/04 12:05:48;;;;;;;18.92;12.20;;;2.20;88.20;;;;;;5073223;28;20028;-71
2021/01/04 12:08:14;;;;;;;20.55;12.80;;;2.10;90.10;;;;;;5073292;28;20033;-71
2021/01/04 12:10:39;;;;;;;28.73;15.05;;;2.10;90.70;;;;;;5073012;28;20194;-71
2021/01/04 12:13:09;;;;;;;24.48;14.00;;;2.10;91.40;;;;;;5073508;28;20063;-67
2021/01/04 12:15:35;;;;;;;25.55;15.27;;;2.10;93.00;;;;;;5072782;28;20040;-76
2021/01/04 12:18:01;;;;;;;26.92;15.77;;;2.10;93.00;;;;;;5054604;28;20397;-75
2021/01/04 12:20:26;;;;;;;28.80;17.00;;;2.10;93.30;;;;;;5054841;28;20025;-73
2021/01/04 12:22:52;;;;;;;29.45;17.05;;;2.10;93.80;;;;;;5074332;28;20354;-73
2021/01/04 12:25:18;;;;;;;28.63;16.52;;;2.10;94.40;;;;;;5057734;28;20107;-72
2021/01/04 12:27:44;;;;;;;26.63;15.68;;;2.00;95.00;;;;;;5073661;28;20028;-70
2021/01/04 12:30:10;;;;;;;26.35;15.73;;;2.00;95.70;;;;;;5072657;28;20035;-68
2021/01/04 12:32:36;;;;;;;27.55;17.38;;;1.90;96.10;;;;;;5054587;28;20418;-68
2021/01/04 12:35:03;;;;;;;27.98;16.83;;;2.00;96.00;;;;;;5072814;28;20135;-68
2021/01/04 12:37:28;;;;;;;25.90;15.60;;;1.90;94.70;;;;;;5072173;28;20033;-69
2021/01/04 12:39:54;;;;;;;25.85;15.55;;;1.90;94.30;;;;;;5073283;28;20363;-69
2021/01/04 12:42:20;;;;;;;27.95;16.20;;;1.90;95.20;;;;;;5072847;28;20449;-68
2021/01/04 12:44:47;;;;;;;31.60;17.90;;;1.90;95.80;;;;;;5072438;28;20075;-69
2021/01/04 12:47:14;;;;;;;32.30;18.98;;;1.80;96.20;;;;;;5072534;28;20378;-70
2021/01/04 12:49:40;;;;;;;31.90;17.85;;;1.80;96.20;;;;;;5071721;28;20028;-71
2021/01/04 12:52:06;;;;;;;32.33;18.13;;;1.80;96.20;;;;;;5074453;28;20069;-73
2021/01/04 12:54:31;;;;;;;28.60;17.48;;;1.80;95.40;;;;;;5066461;28;20024;-69
2021/01/04 12:57:02;;;;;;;29.17;16.70;;;1.80;95.50;;;;;;5072810;28;20430;-69
2021/01/04 12:59:28;;;;;;;34.63;17.98;;;1.80;94.80;;;;;;5071117;28;20045;-69
2021/01/04 13:01:55;;;;;;;28.58;17.75;;;1.70;95.30;;;;;;5084460;28;20024;-68
2021/01/04 13:04:27;;;;;;;29.88;18.23;;;1.70;94.90;;;;;;5112603;28;20034;-66
2021/01/04 13:06:54;;;;;;;35.10;18.08;;;1.70;94.20;;;;;;5112769;28;20376;-71
2021/01/04 13:09:20;;;;;;;30.35;18.35;;;1.70;94.40;;;;;;5112585;28;20028;-68
2021/01/04 13:11:47;;;;;;;33.97;20.00;;;1.70;93.60;;;;;;5112509;28;20499;-69
2021/01/04 13:14:13;;;;;;;33.90;19.38;;;1.70;94.80;;;;;;5085507;28;20044;-67
2021/01/04 13:16:39;;;;;;;35.25;19.98;;;1.60;95.80;;;;;;5071427;28;20029;-68
2021/01/04 13:19:06;;;;;;;35.33;18.67;;;1.60;96.70;;;;;;5075914;28;20024;-72
2021/01/04 13:21:32;;;;;;;30.77;18.88;;;1.60;96.50;;;;;;5080682;28;20071;-74
2021/01/04 13:23:58;;;;;;;33.63;19.40;;;1.50;96.50;;;;;;5086384;28;20470;-72
2021/01/04 13:26:23;;;;;;;29.23;16.73;;;1.60;95.60;;;;;;5076754;28;20021;-69